»·PEaware :: N184CF KBFL-KMHV

N184CF :: KBFL-KMHV

FLIGHT INFORMATION

Flight Status: Arrived
Operator: Privately registered:
United States
More flights under this callsign
Pilot: Arik P. (45269)
Aircraft: Unknown
(P28)
More flights by this aircraft type
Origin: KBFL Meadows
United States
Destination: KMHV Mojave
United States
More flights between these airports :: More routes between these airports
Route:
File this flight plan on PilotEdge
Remarks:
Altitude:
(Current/Filed)
9,500ft
Speed:
(Current/Filed)
100kts
Departed: 31-Oct-23 03:03 PM
Arrived: 31-Oct-23 03:37 PM
Distance/Time
Traveled:
1nm/0:34
Distance/Time
To Go:
Arrived

Flight Plot

Page will automatically refresh every two minutes.


Map Options




Map Legend


Flown Route
Filed Route
Departure Airport
Arrival Airport
Navaid (VOR, NDB)
Fix

Horizontal Profiles

Position Reports

Time Latitude Longitude Heading Altitude Ground
Speed
31-Oct-23 14:31 35.428714 -119.045458 63 481ft 0kts
31-Oct-23 14:32 35.428714 -119.045458 63 481ft 0kts
31-Oct-23 14:33 35.428714 -119.045458 63 481ft 0kts
31-Oct-23 14:34 35.428714 -119.045458 63 481ft 0kts
31-Oct-23 14:35 35.428714 -119.045458 63 481ft 0kts
31-Oct-23 14:39 35.428714 -119.045458 63 481ft 0kts
31-Oct-23 14:40 35.428714 -119.045458 63 481ft 0kts
31-Oct-23 14:41 35.428714 -119.045458 63 481ft 0kts
31-Oct-23 14:42 35.428714 -119.045458 63 481ft 0kts
31-Oct-23 14:43 35.428714 -119.045458 63 481ft 0kts
31-Oct-23 14:44 35.428714 -119.045458 63 481ft 0kts
31-Oct-23 14:45 35.428714 -119.045458 63 481ft 0kts
31-Oct-23 14:46 35.428714 -119.045458 63 481ft 0kts
31-Oct-23 14:47 35.428714 -119.045458 63 481ft 0kts
31-Oct-23 14:48 35.428714 -119.045458 63 481ft 0kts
31-Oct-23 14:49 35.428714 -119.045458 63 481ft 0kts
31-Oct-23 14:50 35.428714 -119.045458 63 481ft 0kts
31-Oct-23 14:51 35.428714 -119.045458 63 481ft 0kts
31-Oct-23 14:52 35.428714 -119.045458 63 481ft 0kts
31-Oct-23 14:53 35.428714 -119.045458 63 481ft 0kts
31-Oct-23 14:54 35.428714 -119.045458 63 481ft 0kts
31-Oct-23 14:55 35.428522 -119.045111 172 480ft 12kts
31-Oct-23 14:56 35.425322 -119.043887 200 471ft 6kts
31-Oct-23 14:57 35.425226 -119.044167 298 471ft 0kts
31-Oct-23 14:58 35.425226 -119.044167 298 471ft 0kts
31-Oct-23 14:59 35.425226 -119.044167 298 471ft 0kts
31-Oct-23 15:00 35.425402 -119.044619 265 472ft 0kts
31-Oct-23 15:02 35.425490 -119.046171 314 475ft 6kts
31-Oct-23 15:03 35.438448 -119.061549 314 1212ft 74kts
31-Oct-23 15:04 35.447905 -119.057001 127 2276ft 78kts
31-Oct-23 15:05 35.430977 -119.038942 141 3253ft 81kts
31-Oct-23 15:06 35.410707 -119.029926 185 4172ft 74kts
31-Oct-23 15:07 35.389321 -119.028393 157 5052ft 73kts
31-Oct-23 15:08 35.376106 -119.010111 129 5692ft 89kts
31-Oct-23 15:09 35.365875 -118.983419 106 6500ft 89kts
31-Oct-23 15:10 35.362796 -118.953708 104 7274ft 87kts
31-Oct-23 15:11 35.354482 -118.925367 112 8004ft 85kts
31-Oct-23 15:12 35.345287 -118.897124 115 8669ft 90kts
31-Oct-23 15:13 35.334586 -118.869355 112 9332ft 90kts
31-Oct-23 15:14 35.324537 -118.836483 114 9490ft 109kts
31-Oct-23 15:15 35.312398 -118.802357 114 9538ft 106kts
31-Oct-23 15:16 35.300795 -118.766417 115 9412ft 110kts
31-Oct-23 15:17 35.288266 -118.732500 115 9431ft 110kts
31-Oct-23 15:18 35.278117 -118.699019 96 9520ft 110kts
31-Oct-23 15:19 35.270850 -118.663813 119 9493ft 114kts
31-Oct-23 15:20 35.255977 -118.630350 118 9493ft 108kts
31-Oct-23 15:21 35.241683 -118.596890 118 9444ft 109kts
31-Oct-23 15:22 35.227229 -118.565031 118 9455ft 112kts
31-Oct-23 15:23 35.212898 -118.531931 126 9480ft 106kts
31-Oct-23 15:24 35.194245 -118.502282 134 9430ft 111kts
31-Oct-23 15:25 35.172312 -118.474050 132 9329ft 109kts
31-Oct-23 15:25 35.154954 -118.449875 131 8878ft 112kts
31-Oct-23 15:27 35.130833 -118.411744 122 7709ft 127kts
31-Oct-23 15:28 35.117285 -118.374282 106 7310ft 109kts
31-Oct-23 15:29 35.113433 -118.341665 44 7564ft 95kts
31-Oct-23 15:30 35.129195 -118.345520 222 7841ft 78kts
31-Oct-23 15:30 35.115472 -118.329613 110 7743ft 122kts
31-Oct-23 15:31 35.111350 -118.284295 93 7181ft 132kts
31-Oct-23 15:32 35.093730 -118.250590 137 6328ft 128kts
31-Oct-23 15:33 35.064401 -118.230267 168 5196ft 105kts
31-Oct-23 15:35 35.048321 -118.195597 120 3724ft 100kts
31-Oct-23 15:36 35.056478 -118.169479 53 2952ft 76kts
31-Oct-23 15:36 35.059196 -118.153744 93 2757ft 26kts
31-Oct-23 15:37 35.058374 -118.149661 138 2753ft 0kts
31-Oct-23 15:38 35.057700 -118.149816 224 2752ft 0kts
31-Oct-23 15:39 35.057038 -118.154011 271 2761ft 7kts
31-Oct-23 15:40 35.057276 -118.154446 356 2762ft 0kts
31-Oct-23 15:41 35.057276 -118.154446 356 2762ft 0kts
31-Oct-23 15:42 35.057276 -118.154446 356 2762ft 0kts
31-Oct-23 15:43 35.057276 -118.154446 356 2762ft 0kts
31-Oct-23 15:44 35.057276 -118.154446 356 2762ft 0kts
31-Oct-23 15:46 35.428714 -119.045458 63 481ft 0kts
31-Oct-23 15:47 35.428714 -119.045458 63 481ft 0kts
31-Oct-23 15:48 35.428714 -119.045458 63 481ft 0kts
31-Oct-23 15:49 35.428714 -119.045458 63 481ft 0kts
31-Oct-23 15:50 35.428714 -119.045458 63 481ft 0kts

Navigation Log

Ident Type
Flight plan parsing failed, navigation log unavailable